Diego Lopes

Chefscout - Bragantino
20 Feb 2028
Sonntag
Verarbeitung

Persönlichkeit

Anpassungsfähigkeit (1) Ehrgeiz (1) Kontroverse (12) Loyalität (4) Druck (20) Professionalität (17) Fairness (4) Temperament (3)

Profil

Trainerstil Demokratisch
Lizenz Nationale B
Entschlossenheit 13
Menschenführung 9
Motivation 7
Disziplin 13
Arbeitszufriedenheit
100%
Ermüdung
0%
Rolle Chefscout
Gehalt 66.9K p/W
Vertrag 14.03.2028

Leistung

Verhalten Gut
Trainingseffektivität
48%
Spielerentwicklung
40%
Verletzungsprävention
40%
Taktische Umsetzung
60%

Letzte Ereignisse

Vertragsverhandlung begonnen jetzt
Vertragsverhandlung begonnen jetzt
Vertragsverhandlung begonnen jetzt
Vertragsverhandlung begonnen jetzt
Vertragsverhandlung begonnen 7T her
Vertragsverhandlung begonnen 7T her
Vertragsverhandlung begonnen 7T her
Vertragsverhandlung begonnen 7T her

Aktuell beobachtet

83
Spieler Verein Status Fähigkeit Vertrauen Beobachtet Zuletzt beobachtet Letzte Stimme
Bernardo Lima Porto Aktiv 103 / 132 40% 2 31.12.2027 -
Filipe Sousa Porto Aktiv 103 / 95 40% 1 31.12.2027 -
Jorthy Mokio Ajax Aktiv 130 / 152 40% 1 31.12.2027 -
Chris Rigg Bournemouth Aktiv 141 / 149 40% 4 30.12.2027 -
Djhordney Sport Recife Aktiv 94 / 109 40% 1 30.12.2027 -
Daniel Banjaqui Benfica Aktiv 124 / 128 40% 5 29.12.2027 -
Louis Page West Ham United Aktiv 129 / 116 40% 3 29.12.2027 Mehr Infos nötig
Nicolas America Mineiro Aktiv 109 / 100 40% 2 29.12.2027 -
Lautaro Dufur Rentistas Aktiv 96 / 117 40% 2 27.12.2027 -
Abubacarr Sedi Kinteh Al-Khaleej Aktiv 136 / 117 40% 1 27.12.2027 -
Agustín Obregón River Plate Aktiv 113 / 128 40% 1 27.12.2027 -
Martim Cunha Porto Aktiv 107 / 104 40% 5 26.12.2027 -
Joel Ezra Enyimba Aktiv 95 / 115 40% 1 26.12.2027 -
Lamine Bèye Famalicao Aktiv 111 / 106 40% 4 25.12.2027 -
Victor Ehibe Barau Aktiv 82 / 86 40% 1 23.12.2027 -
Ezekiel Kwame Alladoh Philadelphia Union Aktiv 115 / 121 40% 1 20.12.2027 -
Cristian Iguarán Jaguares Verhandlung 110 / 121 40% 1 20.12.2027 -
Richard Koné Queens Park Rangers Aktiv 131 / 141 40% 1 20.12.2027 -
Salvador Blopá Sporting CP Aktiv 119 / 142 40% 3 14.12.2027 -
Duvan Giraldo Cortulua Aktiv 137 / 147 40% 1 14.12.2027 -
Gift Udoh Ikorodu City Aktiv 79 / 107 40% 1 14.12.2027 -
Felipe Faúndez O'Higgins Aktiv 108 / 99 40% 3 13.12.2027 -
Themba Zwane Bragantino Aktiv 132 / 132 66% 1 13.12.2027 Befürworten
Caleb Yirenkyi Coventry City Aktiv 137 / 136 40% 4 12.12.2027 -
Bahia Santos Aktiv 111 / 109 40% 2 12.12.2027 -
Cristian Morales Iquique Aktiv 87 / 80 40% 2 12.12.2027 -
Miguel Figueiredo Benfica Aktiv 116 / 132 40% 5 09.12.2027 -
Sebastián Ramírez Deportivo Pasto Aktiv 113 / 121 40% 1 07.12.2027 -
Mohamed-Ali Cho Hull City Aktiv 140 / 142 40% 1 03.12.2027 -
Igor Cariús Mirassol Verloren 121 / 123 76% 1 01.12.2027 -
Jaydee Canvot Crystal Palace Aktiv 144 / 136 40% 2 20.07.2027 -
Gustavo Albarracín Alavés Aktiv 120 / 118 40% 1 20.07.2027 -
Godwin Oham Warri Wolves Aktiv 82 / 103 40% 1 19.07.2027 Mehr Infos nötig
Milan Roganović Partizan Aktiv 108 / 113 40% 2 18.07.2027 -
Jack Shorrock Port Vale Aktiv 100 / 118 40% 5 17.07.2027 -
Dylan Cabral Arsenal Aktiv 94 / 92 40% 1 13.07.2027 -
Nicolás Azambuja Nottingham Forest Aktiv 125 / 122 40% 1 13.07.2027 -
Mattia Mannini Juve Stabia Aktiv 112 / 102 40% 3 08.07.2027 -
Jan Bürger Burton Albion Aktiv 118 / 125 40% 2 06.07.2027 -
Chibueze Oputa Rangers International Aktiv 79 / 73 40% 1 06.07.2027 -
Babis Kostoulas Manchester City Aktiv 133 / 142 40% 1 05.07.2027 -
George Brown Sheffield Wednesday Aktiv 103 / 93 40% 1 05.07.2027 -
Callum Tripp Milton Keynes Dons Aktiv 80 / 84 40% 2 03.07.2027 -
Jens Hjertø-Dahl Hull City Aktiv 125 / 141 40% 2 30.06.2027 -
Rúben Ismael Vitória Aktiv 110 / 122 69% 1 28.06.2027 Befürworten
Elias Baum Eintracht Frankfurt Aktiv 121 / 127 40% 3 23.06.2027 -
Josh King Fulham Aktiv 133 / 157 40% 1 23.06.2027 -
Kazunari Kita Real Sociedad Aktiv 109 / 97 40% 1 17.06.2027 -
Jeffrey Annan Hasaacas Aktiv 100 / 83 40% 2 16.06.2027 -
Honest Ahanor Udinese Aktiv 138 / 136 40% 2 13.06.2027 -
Moncef Zekri Sporting CP Aktiv 96 / 124 40% 1 12.06.2027 -
Ronan Kpakio West Bromwich Albion Aktiv 119 / 125 40% 2 11.06.2027 -
Michael Cooper Sheffield United Aktiv 144 / 148 40% 2 10.06.2027 -
Tomás Pérez Porto Aktiv 130 / 116 40% 1 08.06.2027 -
Fernando Forestieri Standard Liege Verloren 125 / 125 66% 1 01.06.2027 Befürworten
Stanislav Agkatsev Krasnodar Aktiv 141 / 122 40% 1 01.06.2027 -
Gianluca Saro Foggia Aktiv 126 / 120 40% 1 01.06.2027 -
Elia Boseggia Novara Aktiv 109 / 102 40% 1 01.06.2027 -
Brent Gabriel Zulte Waregem Aktiv 116 / 108 40% 1 31.12.2026 Mehr Infos nötig
Tiago Silva Oliveirense Aktiv 119 / 119 40% 1 31.12.2026 -
João Gonçalves Feirense Aktiv 108 / 120 40% 2 30.12.2026 Mehr Infos nötig
Bento Al-Nassr Aktiv 135 / 134 40% 1 28.12.2026 Mehr Infos nötig
Patrick Sequeira Casa Pia Aktiv 114 / 114 40% 3 27.12.2026 -
Dmytro Riznyk Shakhtar Aktiv 134 / 133 40% 1 27.12.2026 -
Martim Fernandes Porto Aktiv 146 / 122 40% 1 26.12.2026 -
Matvey Kislyak CSKA Moscow Aktiv 125 / 155 40% 1 26.12.2026 -
Renato Guimarães Veracruz Aktiv 119 / 114 40% 1 26.12.2026 -
Thiago Couto São Paulo Aktiv 110 / 119 40% 2 24.12.2026 -
Adriel Torreense Aktiv 131 / 138 40% 1 24.12.2026 -
Cezary Miszta Rio Ave Aktiv 133 / 148 40% 2 23.12.2026 -
Lukas Jensen Millwall Aktiv 122 / 112 40% 1 23.12.2026 -
Milad Hosseini Padideh Aktiv 110 / 122 40% 1 23.12.2026 -
Bernardo Fontes Braga Aktiv 124 / 124 40% 1 22.12.2026 -
Leo Kokubo Sint-Truiden Aktiv 125 / 113 40% 1 22.12.2026 -
Juan Diego Castillo Vitoria Guimaraes Aktiv 108 / 109 40% 1 21.12.2026 -
Yehvann Diouf OGC Nice Aktiv 135 / 140 40% 2 20.12.2026 -
Murphy Cooper Plymouth Argyle Aktiv 104 / 118 40% 1 20.12.2026 -
Josh Keeley Luton Town Aktiv 111 / 141 40% 1 19.12.2026 -
Anthony Patterson Wrexham Aktiv 118 / 139 40% 2 18.12.2026 -
Will Lankshear Middlesbrough Aktiv 122 / 135 40% 1 07.12.2026 -
Leo Castledine Middlesbrough Aktiv 136 / 117 40% 1 06.12.2026 -
Mateus Mané Liverpool Aktiv 128 / 132 40% 1 06.12.2026 -
Antonio Gomis Vizela Aktiv 115 / 139 40% 1 01.12.2026 -